createdAt,value
2018-04-28T00:00:14.773Z,10.15
2018-04-28T00:01:14.797Z,10.14
2018-04-28T00:02:14.814Z,10.05
2018-04-28T00:03:14.576Z,9.97
2018-04-28T00:04:14.596Z,10.04
2018-04-28T00:05:14.611Z,9.93
2018-04-28T00:06:14.952Z,10.02
2018-04-28T00:07:14.653Z,9.96
2018-04-28T00:08:14.931Z,10.01
2018-04-28T00:10:14.981Z,9.9
2018-04-28T00:11:14.994Z,9.9
2018-04-28T00:12:14.755Z,9.83
2018-04-28T00:13:29.692Z,9.79
2018-04-28T00:14:15.054Z,9.89
2018-04-28T00:15:14.817Z,9.93
2018-04-28T00:16:14.840Z,9.94
2018-04-28T00:17:14.860Z,9.91
2018-04-28T00:19:15.160Z,9.84
2018-04-28T00:20:29.835Z,9.81
2018-04-28T00:21:15.295Z,9.86
2018-04-28T00:22:15.219Z,9.69
2018-04-28T00:23:29.892Z,9.81
2018-04-28T00:24:15.001Z,9.86
2018-04-28T00:25:15.280Z,9.75
2018-04-28T00:26:15.297Z,9.81
2018-04-28T00:27:15.315Z,9.75
2018-04-28T00:28:29.998Z,9.84
2018-04-28T00:29:15.100Z,9.72
2018-04-28T00:30:15.391Z,9.65
2018-04-28T00:32:15.158Z,9.74
2018-04-28T00:33:15.436Z,9.75
2018-04-28T00:34:15.555Z,9.72
2018-04-28T00:35:15.482Z,9.61
2018-04-28T00:36:30.155Z,9.56
2018-04-28T00:37:15.518Z,9.57
2018-04-28T00:38:15.533Z,9.57
2018-04-28T00:39:15.556Z,9.57
2018-04-28T00:40:15.320Z,9.43
2018-04-28T00:41:15.336Z,9.56
2018-04-28T00:42:15.695Z,9.47
2018-04-28T00:43:15.117Z,9.64
2018-04-28T00:44:15.659Z,9.46
2018-04-28T00:46:15.699Z,9.4
2018-04-28T00:48:15.737Z,9.4
2018-04-28T00:49:15.756Z,9.36
2018-04-28T00:50:30.437Z,9.47
2018-04-28T00:52:15.821Z,9.33
2018-04-28T00:53:15.839Z,9.39
2018-04-28T00:54:15.869Z,9.38
2018-04-28T00:55:15.618Z,9.36
2018-04-28T00:56:15.901Z,9.4
2018-04-28T00:57:15.915Z,9.35
2018-04-28T00:58:15.935Z,9.26
2018-04-28T00:59:15.954Z,9.28
2018-04-28T01:01:16.009Z,9.29
2018-04-28T01:02:16.020Z,9.42
2018-04-28T01:03:15.782Z,9.32
2018-04-28T01:04:16.059Z,9.35
2018-04-28T01:05:16.076Z,9.43
2018-04-28T01:06:30.754Z,9.36
2018-04-28T01:07:16.115Z,9.35
2018-04-28T01:08:15.877Z,9.35
2018-04-28T01:09:15.894Z,9.36
2018-04-28T01:10:15.911Z,9.38
2018-04-28T01:11:15.937Z,9.38
2018-04-28T01:12:16.213Z,9.36
2018-04-28T01:13:15.973Z,9.32
2018-04-28T01:14:16.252Z,9.26
2018-04-28T01:15:16.019Z,9.4
2018-04-28T01:17:16.055Z,9.24
2018-04-28T01:18:16.332Z,9.23
2018-04-28T01:19:16.099Z,9.18
2018-04-28T01:20:16.116Z,9.15
2018-04-28T01:21:16.133Z,9.24
2018-04-28T01:22:16.409Z,9.23
2018-04-28T01:23:31.090Z,9.18
2018-04-28T01:24:16.194Z,9.17
2018-04-28T01:25:16.469Z,9.05
2018-04-28T01:26:16.243Z,9.08
2018-04-28T01:27:16.251Z,9.1
2018-04-28T01:29:16.288Z,9.02
2018-04-28T01:30:16.308Z,8.92
2018-04-28T01:31:16.326Z,8.94
2018-04-28T01:33:16.366Z,8.89
2018-04-28T01:34:16.641Z,8.94
2018-04-28T01:35:16.146Z,8.83
2018-04-28T01:36:16.685Z,8.89
2018-04-28T01:37:16.803Z,8.91
2018-04-28T01:38:16.823Z,8.84
2018-04-28T01:39:16.746Z,8.86
2018-04-28T01:40:16.503Z,8.8
2018-04-28T01:41:16.784Z,8.84
2018-04-28T01:42:16.800Z,8.8
2018-04-28T01:43:16.819Z,8.81
2018-04-28T01:44:16.841Z,8.7
2018-04-28T01:45:16.599Z,8.73
2018-04-28T01:46:16.879Z,8.61
2018-04-28T01:47:16.639Z,8.68
2018-04-28T01:48:31.576Z,8.53
2018-04-28T01:49:16.941Z,8.58
2018-04-28T01:52:17.001Z,8.58
2018-04-28T01:53:31.677Z,8.55
2018-04-28T01:54:16.783Z,8.61
2018-04-28T01:55:31.715Z,8.56
2018-04-28T01:56:31.733Z,8.59
2018-04-28T01:57:17.099Z,8.59
2018-04-28T01:58:17.109Z,8.56
2018-04-28T01:59:16.881Z,8.53
2018-04-28T02:00:17.154Z,8.56
2018-04-28T02:01:17.170Z,8.53
2018-04-28T02:03:31.870Z,8.44
2018-04-28T02:04:17.231Z,8.5
2018-04-28T02:06:17.282Z,8.48
2018-04-28T02:07:17.286Z,8.34
2018-04-28T02:09:17.329Z,8.44
2018-04-28T02:10:17.358Z,8.33
2018-04-28T02:11:17.366Z,8.29
2018-04-28T02:12:32.045Z,8.18
2018-04-28T02:13:17.414Z,8.12
2018-04-28T02:14:17.171Z,8.22
2018-04-28T02:15:17.189Z,8.2
2018-04-28T02:16:17.462Z,8.33
2018-04-28T02:17:17.483Z,8.34
2018-04-28T02:18:17.508Z,8.3
2018-04-28T02:19:17.520Z,8.3
2018-04-28T02:20:17.540Z,8.26
2018-04-28T02:21:17.561Z,8.16
2018-04-28T02:22:17.586Z,8.07
2018-04-28T02:23:17.343Z,8.05
2018-04-28T02:24:17.627Z,8.02
2018-04-28T02:25:17.644Z,7.98
2018-04-28T02:26:17.663Z,8.04
2018-04-28T02:27:17.679Z,8.07
2018-04-28T02:28:17.694Z,8.12
2018-04-28T02:29:17.713Z,8.07
2018-04-28T02:30:17.733Z,8.07
2018-04-28T02:31:17.753Z,8.08
2018-04-28T02:32:17.863Z,8.01
2018-04-28T02:33:17.799Z,8.07
2018-04-28T02:34:17.812Z,8.02
2018-04-28T02:35:32.573Z,8.05
2018-04-28T02:36:17.852Z,8.11
2018-04-28T02:37:17.897Z,8.08
2018-04-28T02:38:17.889Z,8.04
2018-04-28T02:39:17.922Z,8
2018-04-28T02:40:32.588Z,7.93
2018-04-28T02:41:17.949Z,7.95
2018-04-28T02:42:32.623Z,8.01
2018-04-28T02:43:18.088Z,8.02
2018-04-28T02:44:18.008Z,7.97
2018-04-28T02:45:18.032Z,7.86
2018-04-28T02:46:18.043Z,7.83
2018-04-28T02:47:18.061Z,7.86
2018-04-28T02:48:18.082Z,7.86
2018-04-28T02:49:18.098Z,7.85
2018-04-28T02:50:18.090Z,7.8
2018-04-28T02:51:32.802Z,7.75
2018-04-28T02:52:18.159Z,7.85
2018-04-28T02:53:18.179Z,7.85
2018-04-28T02:54:18.193Z,7.75
2018-04-28T02:55:18.209Z,7.63
2018-04-28T02:56:18.232Z,7.68
2018-04-28T02:57:17.999Z,7.63
2018-04-28T02:58:32.933Z,7.6
2018-04-28T02:59:18.030Z,7.64
2018-04-28T03:00:18.047Z,7.53
2018-04-28T03:01:18.402Z,7.53
2018-04-28T03:02:18.351Z,7.52
2018-04-28T03:03:18.367Z,7.68
2018-04-28T03:04:18.385Z,7.63
2018-04-28T03:05:18.151Z,7.5
2018-04-28T03:06:18.427Z,7.57
2018-04-28T03:07:32.841Z,7.55
2018-04-28T03:09:18.487Z,7.52
2018-04-28T03:10:18.498Z,7.53
2018-04-28T03:11:18.517Z,7.4
2018-04-28T03:12:18.539Z,7.4
2018-04-28T03:13:18.574Z,7.32
2018-04-28T03:14:18.578Z,7.45
2018-04-28T03:15:18.591Z,7.32
2018-04-28T03:16:18.617Z,7.34
2018-04-28T03:17:18.638Z,7.43
2018-04-28T03:18:18.389Z,7.42
2018-04-28T03:19:18.672Z,7.32
2018-04-28T03:20:18.432Z,7.32
2018-04-28T03:21:18.706Z,7.4
2018-04-28T03:22:18.720Z,7.45
2018-04-28T03:24:18.929Z,7.35
2018-04-28T03:25:18.781Z,7.32
2018-04-28T03:26:18.540Z,7.28
2018-04-28T03:27:18.924Z,7.28
2018-04-28T03:28:18.842Z,7.24
2018-04-28T03:29:18.855Z,7.23
2018-04-28T03:30:18.877Z,7.24
2018-04-28T03:31:18.894Z,7.35
2018-04-28T03:32:19.022Z,7.37
2018-04-28T03:33:18.931Z,7.45
2018-04-28T03:34:18.949Z,7.37
2018-04-28T03:35:18.967Z,7.28
2018-04-28T03:36:18.988Z,7.24
2018-04-28T03:37:18.748Z,7.42
2018-04-28T03:38:33.684Z,7.34
2018-04-28T03:39:19.045Z,7.4
2018-04-28T03:40:18.808Z,7.37
2018-04-28T03:41:18.833Z,7.35
2018-04-28T03:42:33.766Z,7.39
2018-04-28T03:43:18.606Z,7.34
2018-04-28T03:44:19.137Z,7.53
2018-04-28T03:45:19.160Z,7.48
2018-04-28T03:46:33.835Z,7.53
2018-04-28T03:47:33.854Z,7.49
2018-04-28T03:48:18.954Z,7.45
2018-04-28T03:49:18.977Z,7.4
2018-04-28T03:50:18.734Z,7.39
2018-04-28T03:51:19.011Z,7.34
2018-04-28T03:52:19.294Z,7.34
2018-04-28T03:53:19.307Z,7.49
2018-04-28T03:54:19.069Z,7.5
2018-04-28T03:55:19.353Z,7.53
2018-04-28T03:56:19.364Z,7.5
2018-04-28T03:57:19.382Z,7.57
2018-04-28T03:58:19.410Z,7.57
2018-04-28T03:59:19.418Z,7.6
2018-04-28T04:00:19.444Z,7.67
2018-04-28T04:01:34.119Z,7.58
2018-04-28T04:02:34.136Z,7.5
2018-04-28T04:03:34.154Z,7.46
2018-04-28T04:04:19.264Z,7.45
2018-04-28T04:05:19.278Z,7.43
2018-04-28T04:06:19.557Z,7.43
2018-04-28T04:07:19.570Z,7.4
2018-04-28T04:08:19.593Z,7.49
2018-04-28T04:09:19.609Z,7.43
2018-04-28T04:10:34.286Z,7.5
2018-04-28T04:11:19.645Z,7.52
2018-04-28T04:12:19.773Z,7.49
2018-04-28T04:13:19.690Z,7.57
2018-04-28T04:14:19.709Z,7.68
2018-04-28T04:15:19.723Z,7.69
2018-04-28T04:16:19.740Z,7.77
2018-04-28T04:17:34.419Z,7.85
2018-04-28T04:18:19.933Z,7.87
2018-04-28T04:19:34.456Z,7.79
2018-04-28T04:20:19.820Z,7.95
2018-04-28T04:21:19.833Z,7.87
2018-04-28T04:22:19.614Z,7.86
2018-04-28T04:23:19.874Z,7.97
2018-04-28T04:24:19.634Z,8.04
2018-04-28T04:25:19.914Z,8.07
2018-04-28T04:26:34.734Z,8.04
2018-04-28T04:27:19.952Z,8.05
2018-04-28T04:28:19.710Z,8.05
2018-04-28T04:29:19.989Z,8.1
2018-04-28T04:30:20.010Z,8.08
2018-04-28T04:31:20.024Z,8.05
2018-04-28T04:32:34.707Z,8.2
2018-04-28T04:33:20.070Z,8.22
2018-04-28T04:34:34.744Z,8.15
2018-04-28T04:35:34.761Z,8.22
2018-04-28T04:36:20.126Z,8.18
2018-04-28T04:37:20.142Z,8.23
2018-04-28T04:38:20.168Z,8.22
2018-04-28T04:39:20.186Z,8.33
2018-04-28T04:40:19.941Z,8.48
2018-04-28T04:41:20.215Z,8.41
2018-04-28T04:43:19.997Z,8.4
2018-04-28T04:44:34.940Z,8.34
2018-04-28T04:45:20.299Z,8.43
2018-04-28T04:46:20.057Z,8.52
2018-04-28T04:47:20.089Z,8.65
2018-04-28T04:48:19.837Z,8.98
2018-04-28T04:49:35.035Z,9.61
2018-04-28T04:50:35.053Z,10.2
2018-04-28T04:51:20.413Z,10.59
2018-04-28T04:52:20.534Z,11.02
2018-04-28T04:53:20.455Z,11.37
2018-04-28T04:54:20.481Z,11.94
2018-04-28T04:55:20.494Z,12.45
2018-04-28T04:56:20.523Z,12.77
2018-04-28T04:57:20.541Z,13.33
2018-04-28T04:58:35.229Z,13.89
2018-04-28T04:59:20.584Z,14.25
2018-04-28T05:00:20.604Z,14.6
2018-04-28T05:01:20.626Z,14.77
2018-04-28T05:02:20.654Z,15.09
2018-04-28T05:03:20.414Z,15.47
2018-04-28T05:04:20.706Z,15.83
2018-04-28T05:05:20.717Z,16.14
2018-04-28T05:06:20.749Z,16.14
2018-04-28T05:07:20.768Z,16.33
2018-04-28T05:08:20.793Z,16.43
2018-04-28T05:09:20.560Z,16.46
2018-04-28T05:10:20.843Z,16.81
2018-04-28T05:11:20.866Z,17.01
2018-04-28T05:12:20.890Z,17.3
2018-04-28T05:13:35.582Z,16.66
2018-04-28T05:14:20.944Z,16.14
2018-04-28T05:15:20.970Z,15.89
2018-04-28T05:17:21.019Z,15.71
2018-04-28T05:18:35.544Z,15.53
2018-04-28T05:19:21.063Z,15.53
2018-04-28T05:20:21.098Z,15.21
2018-04-28T05:21:21.118Z,15.06
2018-04-28T05:22:20.883Z,14.91
2018-04-28T05:23:35.567Z,14.64
2018-04-28T05:25:21.217Z,13.99
2018-04-28T05:26:21.235Z,13.88
2018-04-28T05:27:21.264Z,13.78
2018-04-28T05:28:21.285Z,13.59
2018-04-28T05:29:21.310Z,13.59
2018-04-28T05:30:21.334Z,13.66
2018-04-28T05:31:21.358Z,13.6
2018-04-28T05:33:21.155Z,13.7
2018-04-28T05:34:21.431Z,14.32
2018-04-28T05:35:21.451Z,14.46
2018-04-28T05:36:21.475Z,14.68
2018-04-28T05:37:21.500Z,15.06
2018-04-28T05:38:21.270Z,15.53
2018-04-28T05:40:21.570Z,16.64
2018-04-28T05:41:21.345Z,17.55
2018-04-28T05:42:21.627Z,18.2
2018-04-28T05:43:21.645Z,18.42
2018-04-28T05:44:21.669Z,18.58
2018-04-28T05:45:36.366Z,18.76
2018-04-28T05:46:21.721Z,19.1
2018-04-28T05:47:21.487Z,19.47
2018-04-28T05:48:21.963Z,19.78
2018-04-28T05:50:21.830Z,20.35
2018-04-28T05:51:21.595Z,20.62
2018-04-28T05:52:21.881Z,21.32
2018-04-28T05:54:21.934Z,21.82
2018-04-28T05:55:21.962Z,22
2018-04-28T05:56:21.994Z,22.25
2018-04-28T05:57:22.019Z,22.35
2018-04-28T05:58:22.088Z,22.24
2018-04-28T05:59:22.182Z,22.21
2018-04-28T06:00:22.103Z,22.91
2018-04-28T06:01:36.797Z,22.92
2018-04-28T06:02:22.172Z,22.64
2018-04-28T06:03:22.418Z,22.72
2018-04-28T06:04:21.964Z,22.47
2018-04-28T06:06:22.022Z,22.52
2018-04-28T06:07:22.314Z,23.75
2018-04-28T06:08:37.008Z,24.15
2018-04-28T06:09:37.042Z,24.57
2018-04-28T06:10:22.406Z,24.96
2018-04-28T06:11:22.445Z,24.77
2018-04-28T06:12:22.468Z,24.21
2018-04-28T06:13:22.501Z,23.54
2018-04-28T06:14:22.533Z,23
2018-04-28T06:15:22.567Z,22.75
2018-04-28T06:17:37.281Z,22.18
2018-04-28T06:18:22.392Z,22.37
2018-04-28T06:20:22.859Z,22.14
2018-04-28T06:21:22.741Z,21.92
2018-04-28T06:22:22.773Z,21.43
2018-04-28T06:23:22.802Z,21.35
2018-04-28T06:24:37.491Z,20.97
2018-04-28T06:25:22.877Z,20.92
2018-04-28T06:26:22.885Z,20.97
2018-04-28T06:27:22.914Z,20.85
2018-04-28T06:28:22.700Z,20.64
2018-04-28T06:29:22.973Z,20.54
2018-04-28T06:30:23.003Z,20.24
2018-04-28T06:31:23.032Z,20.24
2018-04-28T06:32:23.064Z,20.02
2018-04-28T06:33:37.488Z,19.95
2018-04-28T06:35:23.144Z,20.02
2018-04-28T06:36:37.833Z,20.08
2018-04-28T06:37:23.193Z,19.76
2018-04-28T06:38:37.886Z,19.74
2018-04-28T06:39:23.248Z,19.74
2018-04-28T06:40:23.019Z,19.62
2018-04-28T06:41:23.426Z,19.66
2018-04-28T06:42:23.328Z,19.48
2018-04-28T06:43:23.470Z,19.4
2018-04-28T06:45:23.422Z,19.32
2018-04-28T06:46:23.438Z,19.36
2018-04-28T06:47:23.214Z,19.56
2018-04-28T06:48:38.151Z,19.56
2018-04-28T06:49:22.998Z,19.5
2018-04-28T06:50:38.211Z,19.29
2018-04-28T06:51:23.572Z,19.32
2018-04-28T06:52:23.593Z,19.13
2018-04-28T06:53:23.619Z,19.37
2018-04-28T06:54:23.655Z,19.59
2018-04-28T06:55:23.672Z,19.96
2018-04-28T06:56:23.697Z,20.33
2018-04-28T06:57:23.725Z,20.57
2018-04-28T06:58:23.491Z,20.38
2018-04-28T07:00:23.805Z,20.52
2018-04-28T07:02:23.860Z,21.24
2018-04-28T07:03:23.885Z,21.64
2018-04-28T07:04:23.924Z,21.71
2018-04-28T07:05:23.938Z,21.9
2018-04-28T07:06:23.968Z,22.12
2018-04-28T07:07:23.999Z,22.62
2018-04-28T07:08:24.025Z,23.19
2018-04-28T07:09:24.051Z,23.72
2018-04-28T07:10:24.084Z,24.37
2018-04-28T07:11:24.110Z,24.93
2018-04-28T07:12:38.800Z,24.93
2018-04-28T07:13:23.649Z,24.99
2018-04-28T07:15:24.229Z,24.91
2018-04-28T07:16:24.261Z,25.23
2018-04-28T07:17:24.031Z,24.96
2018-04-28T07:18:24.323Z,24.58
2018-04-28T07:19:24.089Z,24.95
2018-04-28T07:20:39.044Z,25.2
2018-04-28T07:21:24.152Z,25.2
2018-04-28T07:22:24.441Z,25.47
2018-04-28T07:23:24.473Z,25.52
2018-04-28T07:24:24.506Z,26.15
2018-04-28T07:25:24.536Z,26.54
2018-04-28T07:26:24.567Z,26.47
2018-04-28T07:27:24.604Z,26.2
2018-04-28T07:28:24.632Z,26.82
2018-04-28T07:29:39.407Z,27
2018-04-28T07:30:24.696Z,26.92
2018-04-28T07:31:24.733Z,27.19
2018-04-28T07:32:24.504Z,27.25
2018-04-28T07:33:24.795Z,27.22
2018-04-28T07:34:24.568Z,26.63
2018-04-28T07:35:24.706Z,26.58
2018-04-28T07:36:39.556Z,26.33
2018-04-28T07:37:24.939Z,26.4
2018-04-28T07:38:24.958Z,26.58
2018-04-28T07:40:25.028Z,27.18
2018-04-28T07:41:25.070Z,27.28
2018-04-28T07:43:39.791Z,26.92
2018-04-28T07:44:39.823Z,27.27
2018-04-28T07:45:25.197Z,27.06
2018-04-28T07:46:25.226Z,27.54
2018-04-28T07:47:25.263Z,27.32
2018-04-28T07:48:25.036Z,27.29
2018-04-28T07:49:25.342Z,27.19
2018-04-28T07:50:25.382Z,27.44
2018-04-28T07:51:25.395Z,27.77
2018-04-28T07:54:25.505Z,28.78
2018-04-28T07:55:25.533Z,28.9
2018-04-28T07:56:25.306Z,28.59
2018-04-28T07:58:25.632Z,28.25
2018-04-28T07:59:25.665Z,28.22
2018-04-28T08:00:25.812Z,27.31
2018-04-28T08:01:25.737Z,26.62
2018-04-28T08:02:25.774Z,26.65
2018-04-28T08:03:25.806Z,26.77
2018-04-28T08:04:25.848Z,26.77
2018-04-28T08:05:25.872Z,27.02
2018-04-28T08:06:25.911Z,27
2018-04-28T08:07:25.680Z,27.04
2018-04-28T08:10:26.038Z,27.29
2018-04-28T08:11:26.078Z,27.49
2018-04-28T08:12:26.106Z,27.85
2018-04-28T08:13:25.884Z,27.7
2018-04-28T08:14:40.841Z,27.99
2018-04-28T08:15:26.230Z,27.92
2018-04-28T08:16:26.243Z,28.33
2018-04-28T08:17:26.021Z,28.43
2018-04-28T08:18:26.314Z,28.52
2018-04-28T08:19:26.091Z,28.9
2018-04-28T08:20:26.381Z,28.76
2018-04-28T08:21:26.422Z,28.52
2018-04-28T08:23:41.144Z,28.71
2018-04-28T08:24:26.518Z,28.95
2018-04-28T08:25:26.551Z,28.86
2018-04-28T08:26:26.660Z,29.23
2018-04-28T08:27:26.615Z,29.24
2018-04-28T08:28:26.654Z,28.92
2018-04-28T08:29:41.350Z,28.71
2018-04-28T08:30:26.461Z,28.68
2018-04-28T08:31:26.753Z,28.59
2018-04-28T08:32:41.450Z,27.41
2018-04-28T08:33:26.820Z,27.12
2018-04-28T08:34:26.595Z,27.43
2018-04-28T08:35:26.888Z,27.21
2018-04-28T08:36:26.930Z,27.7
2018-04-28T08:37:26.931Z,27.82
2018-04-28T08:38:26.999Z,27.82
2018-04-28T08:39:26.766Z,27.57
2018-04-28T08:40:27.056Z,27.88
2018-04-28T08:42:27.130Z,27.65
2018-04-28T08:43:27.162Z,27.85
2018-04-28T08:44:26.963Z,27.94
2018-04-28T08:45:27.244Z,28.14
2018-04-28T08:46:27.004Z,28.22
2018-04-28T08:47:27.297Z,28.29
2018-04-28T08:48:41.992Z,28.49
2018-04-28T08:49:27.106Z,29.06
2018-04-28T08:50:27.467Z,28.61
2018-04-28T08:51:27.438Z,28.56
2018-04-28T08:52:27.468Z,28.73
2018-04-28T08:53:27.503Z,28.86
2018-04-28T08:54:27.272Z,29.18
2018-04-28T08:55:42.228Z,29.58
2018-04-28T08:56:27.081Z,29.43
2018-04-28T08:57:27.637Z,29.31
2018-04-28T08:58:27.665Z,29.37
2018-04-28T08:59:27.185Z,28.7
2018-04-28T09:00:27.473Z,28.73
2018-04-28T09:01:27.518Z,28.64
2018-04-28T09:02:27.543Z,28.68
2018-04-28T09:03:27.835Z,29.02
2018-04-28T09:04:27.944Z,29.51
2018-04-28T09:05:27.904Z,29.71
2018-04-28T09:06:27.931Z,29.98
2018-04-28T09:07:27.972Z,29.79
2018-04-28T09:08:28.003Z,29.08
2018-04-28T09:09:28.071Z,28.73
2018-04-28T09:10:28.067Z,28.66
2018-04-28T09:11:42.767Z,28.66
2018-04-28T09:12:27.876Z,28.39
2018-04-28T09:13:28.164Z,28.18
2018-04-28T09:14:27.942Z,27.92
2018-04-28T09:15:27.975Z,27.79
2018-04-28T09:16:28.265Z,27.99
2018-04-28T09:17:28.298Z,28.25
2018-04-28T09:18:28.080Z,28.55
2018-04-28T09:19:28.502Z,29.02
2018-04-28T09:20:27.883Z,29.27
2018-04-28T09:21:28.433Z,29.83
2018-04-28T09:22:28.470Z,29.98
2018-04-28T09:23:28.502Z,30.04
2018-04-28T09:25:28.747Z,30
2018-04-28T09:26:43.288Z,30.58
2018-04-28T09:27:43.300Z,30.55
2018-04-28T09:28:28.665Z,30.47
2018-04-28T09:29:28.439Z,30.62
2018-04-28T09:30:28.732Z,30.32
2018-04-28T09:31:28.767Z,30.13
2018-04-28T09:33:28.578Z,29.31
2018-04-28T09:34:28.603Z,29.27
2018-04-28T09:35:43.561Z,29.57
2018-04-28T09:36:28.675Z,29.45
2018-04-28T09:37:28.713Z,29.73
2018-04-28T09:38:43.657Z,29.97
2018-04-28T09:40:29.062Z,29.78
2018-04-28T09:41:28.838Z,29.71
2018-04-28T09:42:28.869Z,29.98
2018-04-28T09:43:43.831Z,29.52
2018-04-28T09:44:28.935Z,29.41
2018-04-28T09:45:28.975Z,29.43
2018-04-28T09:46:29.130Z,29.55
2018-04-28T09:47:29.033Z,29.63
2018-04-28T09:48:29.328Z,29.82
2018-04-28T09:49:28.842Z,29.97
2018-04-28T09:50:29.140Z,30.15
2018-04-28T09:51:29.173Z,30.27
2018-04-28T09:52:29.509Z,30.29
2018-04-28T09:53:29.236Z,30.29
2018-04-28T09:54:29.535Z,30.11
2018-04-28T09:55:29.297Z,30.31
2018-04-28T09:56:29.592Z,30.16
2018-04-28T09:57:29.104Z,30.34
2018-04-28T09:58:44.324Z,30.22
2018-04-28T09:59:29.684Z,30.31
2018-04-28T10:00:29.723Z,30.15
2018-04-28T10:01:29.754Z,29.98
2018-04-28T10:02:29.524Z,30.15
2018-04-28T10:03:44.482Z,30.11
2018-04-28T10:05:29.624Z,30.42
2018-04-28T10:06:44.580Z,30.07
2018-04-28T10:07:29.945Z,30.07
2018-04-28T10:08:29.982Z,30.1
2018-04-28T10:09:29.751Z,29.97
2018-04-28T10:10:30.042Z,29.85
2018-04-28T10:11:30.078Z,29.87
2018-04-28T10:12:30.107Z,30.07
2018-04-28T10:13:30.146Z,29.89
2018-04-28T10:14:29.922Z,29.39
2018-04-28T10:15:29.951Z,29.36
2018-04-28T10:17:30.275Z,29.51
2018-04-28T10:19:30.074Z,29.31
2018-04-28T10:20:30.353Z,28.96
2018-04-28T10:21:30.401Z,28.73
2018-04-28T10:22:45.091Z,28.34
2018-04-28T10:23:30.461Z,28.25
2018-04-28T10:24:30.506Z,27.72
2018-04-28T10:25:30.276Z,27.7
2018-04-28T10:26:30.563Z,27.63
2018-04-28T10:27:30.590Z,27.19
2018-04-28T10:28:30.363Z,26.97
2018-04-28T10:29:30.393Z,27.13
2018-04-28T10:30:45.368Z,27.02
2018-04-28T10:32:30.746Z,26.69
2018-04-28T10:33:30.520Z,26.18
2018-04-28T10:34:30.551Z,25.97
2018-04-28T10:35:30.844Z,25.85
2018-04-28T10:36:30.873Z,26.05
2018-04-28T10:37:30.901Z,26.17
2018-04-28T10:38:30.932Z,26.28
2018-04-28T10:39:30.968Z,26.07
2018-04-28T10:40:30.998Z,25.92
2018-04-28T10:41:31.026Z,25.83
2018-04-28T10:42:30.800Z,25.62
2018-04-28T10:43:30.829Z,25.42
2018-04-28T10:44:31.124Z,25.62
2018-04-28T10:45:31.153Z,25.76
2018-04-28T10:46:45.842Z,25.55
2018-04-28T10:47:31.355Z,25.5
2018-04-28T10:48:30.983Z,25.57
2018-04-28T10:49:30.752Z,25.6
2018-04-28T10:50:31.299Z,25.79
2018-04-28T10:51:31.340Z,26.06
2018-04-28T10:52:31.370Z,26.05
2018-04-28T10:53:31.391Z,26.18
2018-04-28T10:54:30.909Z,26.17
2018-04-28T10:55:30.932Z,25.87
2018-04-28T10:56:45.881Z,25.92
2018-04-28T10:58:31.279Z,25.55
2018-04-28T10:59:31.309Z,25.4
2018-04-28T11:00:31.337Z,25.4
2018-04-28T11:02:46.324Z,25.43
2018-04-28T11:03:31.685Z,25.6
2018-04-28T11:04:31.716Z,25.8
2018-04-28T11:05:31.921Z,25.87
2018-04-28T11:06:31.772Z,25.95
2018-04-28T11:07:31.903Z,26.02
2018-04-28T11:08:31.571Z,25.97
2018-04-28T11:09:46.521Z,25.91
2018-04-28T11:10:46.549Z,26.05
2018-04-28T11:11:46.577Z,25.92
2018-04-28T11:12:31.948Z,25.88
2018-04-28T11:13:31.974Z,25.98
2018-04-28T11:14:31.743Z,26.21
2018-04-28T11:15:32.032Z,26.07
2018-04-28T11:16:32.060Z,26.05
2018-04-28T11:18:46.785Z,26.32
2018-04-28T11:19:32.148Z,26.12
2018-04-28T11:20:32.177Z,26.07
2018-04-28T11:21:31.945Z,25.88
2018-04-28T11:22:32.237Z,25.82
2018-04-28T11:23:32.017Z,25.69
2018-04-28T11:24:32.036Z,25.64
2018-04-28T11:25:32.598Z,25.55
2018-04-28T11:26:32.353Z,25.75
2018-04-28T11:27:32.118Z,25.87
2018-04-28T11:28:32.149Z,25.95
2018-04-28T11:29:32.441Z,26.09
2018-04-28T11:30:32.466Z,26.35
2018-04-28T11:31:32.235Z,26.2
2018-04-28T11:32:32.520Z,26.17
2018-04-28T11:33:47.208Z,26.15
2018-04-28T11:34:32.580Z,26.1
2018-04-28T11:35:32.610Z,25.94
2018-04-28T11:36:32.634Z,25.58
2018-04-28T11:37:32.665Z,25.39
2018-04-28T11:38:32.842Z,25.24
2018-04-28T11:39:32.725Z,25.2
2018-04-28T11:40:32.745Z,25.2
2018-04-28T11:41:32.788Z,24.91
2018-04-28T11:42:32.800Z,25.05
2018-04-28T11:43:47.234Z,25.09
2018-04-28T11:44:32.858Z,25.27
2018-04-28T11:45:32.886Z,25.45
2018-04-28T11:46:32.657Z,25.45
2018-04-28T11:47:33.048Z,25.6
2018-04-28T11:48:32.968Z,25.72
2018-04-28T11:50:32.768Z,25.39
2018-04-28T11:51:33.052Z,25.32
2018-04-28T11:52:33.083Z,25.23
2018-04-28T11:53:33.108Z,25.05
2018-04-28T11:54:33.145Z,25.15
2018-04-28T11:55:32.915Z,25.27
2018-04-28T11:56:33.198Z,25.08
2018-04-28T11:57:47.885Z,25.2
2018-04-28T11:58:33.259Z,25.15
2018-04-28T11:59:33.278Z,24.91
2018-04-28T12:00:47.991Z,24.91
2018-04-28T12:01:33.339Z,25.06
2018-04-28T12:02:33.421Z,25.08
2018-04-28T12:03:33.396Z,24.87
2018-04-28T12:04:33.416Z,24.91
2018-04-28T12:05:47.864Z,24.71
2018-04-28T12:06:33.475Z,24.73
2018-04-28T12:07:33.504Z,24.93
2018-04-28T12:08:33.617Z,24.99
2018-04-28T12:09:33.554Z,25.08
2018-04-28T12:10:33.588Z,25
2018-04-28T12:11:33.611Z,25.18
2018-04-28T12:12:33.716Z,25.32
2018-04-28T12:13:33.674Z,25.39
2018-04-28T12:14:33.693Z,25.45
2018-04-28T12:15:33.359Z,25.46
2018-04-28T12:16:33.762Z,25.51
2018-04-28T12:17:33.517Z,25.39
2018-04-28T12:18:33.546Z,25.08
2018-04-28T12:19:33.576Z,25.06
2018-04-28T12:20:33.602Z,25.17
2018-04-28T12:21:48.653Z,25.14
2018-04-28T12:22:33.917Z,25.21
2018-04-28T12:23:33.943Z,25.18
2018-04-28T12:24:33.973Z,25.28
2018-04-28T12:25:34.012Z,25.32
2018-04-28T12:26:33.769Z,25.15
2018-04-28T12:28:48.744Z,25.08
2018-04-28T12:29:33.850Z,25.09
2018-04-28T12:30:33.883Z,25.17
2018-04-28T12:31:34.166Z,25.35
2018-04-28T12:32:34.193Z,25.24
2018-04-28T12:33:34.218Z,25.25
2018-04-28T12:34:34.257Z,25.23
2018-04-28T12:36:34.304Z,25.06
2018-04-28T12:38:34.097Z,25.05
2018-04-28T12:40:33.896Z,25.35
2018-04-28T12:41:34.438Z,25.36
2018-04-28T12:42:34.467Z,25.38
2018-04-28T12:43:34.240Z,25.42
2018-04-28T12:44:34.521Z,25.36
2018-04-28T12:46:34.581Z,25.52
2018-04-28T12:47:34.606Z,25.36
2018-04-28T12:48:34.709Z,25.27
2018-04-28T12:49:34.400Z,25.06
2018-04-28T12:50:34.801Z,24.88
2018-04-28T12:52:34.747Z,24.57
2018-04-28T12:53:49.433Z,24.24
2018-04-28T12:54:34.807Z,24.28
2018-04-28T12:55:34.827Z,24.4
2018-04-28T12:56:34.863Z,24.57
2018-04-28T12:59:34.933Z,24.93
2018-04-28T13:00:34.973Z,25.1
2018-04-28T13:01:49.648Z,24.98
2018-04-28T13:02:35.016Z,24.91
2018-04-28T13:03:35.043Z,24.6
2018-04-28T13:04:35.073Z,24.46
2018-04-28T13:05:35.100Z,24.46
2018-04-28T13:06:34.865Z,24.45
2018-04-28T13:07:34.899Z,24.61
2018-04-28T13:08:49.582Z,24.57
2018-04-28T13:09:34.951Z,24.67
2018-04-28T13:10:35.235Z,24.77
2018-04-28T13:11:35.263Z,24.78
2018-04-28T13:12:35.031Z,24.85
2018-04-28T13:13:35.318Z,24.93
2018-04-28T13:14:35.081Z,24.87
2018-04-28T13:15:35.115Z,24.95
2018-04-28T13:16:35.144Z,25
2018-04-28T13:17:35.548Z,24.96
2018-04-28T13:18:35.205Z,24.99
2018-04-28T13:20:35.516Z,24.8
2018-04-28T13:21:35.529Z,24.42
2018-04-28T13:22:35.300Z,24.45
2018-04-28T13:23:35.330Z,24.4
2018-04-28T13:24:35.360Z,24.58
2018-04-28T13:25:35.378Z,24.81
2018-04-28T13:26:35.670Z,24.73
2018-04-28T13:27:35.699Z,24.58
2018-04-28T13:28:35.742Z,24.52
2018-04-28T13:29:35.757Z,24.47
2018-04-28T13:30:35.782Z,24.64
2018-04-28T13:31:50.467Z,24.71
2018-04-28T13:32:35.839Z,24.77
2018-04-28T13:33:35.863Z,24.78
2018-04-28T13:34:35.887Z,24.93
2018-04-28T13:35:35.913Z,24.93
2018-04-28T13:36:35.938Z,24.98
2018-04-28T13:37:35.972Z,25
2018-04-28T13:38:35.994Z,24.91
2018-04-28T13:39:36.021Z,24.77
2018-04-28T13:40:50.708Z,24.58
2018-04-28T13:41:36.078Z,24.47
2018-04-28T13:42:36.106Z,24.53
2018-04-28T13:43:36.130Z,24.6
2018-04-28T13:44:36.155Z,24.58
2018-04-28T13:45:36.183Z,24.64
2018-04-28T13:46:36.213Z,24.78
2018-04-28T13:47:35.979Z,24.84
2018-04-28T13:48:50.926Z,24.98
2018-04-28T13:49:50.951Z,24.68
2018-04-28T13:50:36.323Z,24.71
2018-04-28T13:51:36.089Z,24.64
2018-04-28T13:52:36.117Z,24.68
2018-04-28T13:53:36.400Z,24.73
2018-04-28T13:54:36.437Z,24.73
2018-04-28T13:55:36.199Z,24.65
2018-04-28T13:56:51.146Z,24.65
2018-04-28T13:57:36.508Z,24.55
2018-04-28T13:58:36.353Z,24.42
2018-04-28T13:59:36.314Z,24.39
2018-04-28T14:00:36.589Z,24.5
2018-04-28T14:01:36.621Z,24.5
2018-04-28T14:02:36.641Z,24.49
2018-04-28T14:03:51.331Z,24.3
2018-04-28T14:04:36.695Z,24.43
2018-04-28T14:05:51.384Z,24.45